Time;durP1;ratioP1;P1;durP2;ratioP2;P2;SDS_P1;SDS_P2;PMS_P1;PMS_P2;Temp;Humidity;BMP_temperature;BMP_pressure;BME280_temperature;BME280_humidity;BME280_pressure;Samples;Min_cycle;Max_cycle;Signal;HPM_P1;HPM_P2
2023/04/08 00:00:13;;;;;;;35.33;17.73;;;;;;;;;;5032691;28;20104;-74
2023/04/08 00:02:39;;;;;;;40.40;19.03;;;;;;;;;;5031249;28;20028;-73
2023/04/08 00:05:06;;;;;;;37.50;18.50;;;;;;;;;;5032328;28;20056;-75
2023/04/08 00:07:31;;;;;;;40.50;18.27;;;;;;;;;;5031055;28;20508;-75
2023/04/08 00:09:56;;;;;;;37.47;18.43;;;;;;;;;;5032586;28;20030;-73
2023/04/08 00:12:22;;;;;;;36.03;18.93;;;;;;;;;;5032397;28;20048;-73
2023/04/08 00:14:48;;;;;;;33.40;17.97;;;;;;;;;;5030420;28;20479;-74
2023/04/08 00:17:13;;;;;;;33.97;17.83;;;;;;;;;;5030702;28;20377;-73
2023/04/08 00:19:39;;;;;;;36.17;18.83;;;;;;;;;;5032084;28;20096;-73
2023/04/08 00:22:04;;;;;;;35.73;18.00;;;;;;;;;;5031840;28;20068;-75
2023/04/08 00:24:30;;;;;;;37.43;17.40;;;;;;;;;;5032514;28;20039;-73
2023/04/08 00:26:56;;;;;;;29.60;15.67;;;;;;;;;;5030420;28;20044;-73
2023/04/08 00:29:21;;;;;;;28.87;14.83;;;;;;;;;;5032033;28;20105;-72
2023/04/08 00:31:47;;;;;;;29.90;15.23;;;;;;;;;;5032130;28;20056;-74
2023/04/08 00:34:13;;;;;;;29.73;15.47;;;;;;;;;;5032068;28;20025;-74
2023/04/08 00:36:39;;;;;;;31.33;15.50;;;;;;;;;;5032036;28;20080;-72
2023/04/08 00:39:05;;;;;;;31.07;15.40;;;;;;;;;;5029857;28;20416;-73
2023/04/08 00:41:33;;;;;;;27.70;14.63;;;;;;;;;;5011276;28;20038;-74
2023/04/08 00:43:58;;;;;;;29.23;15.77;;;;;;;;;;5010312;28;20042;-74
2023/04/08 00:46:25;;;;;;;30.97;15.03;;;;;;;;;;5012447;28;20080;-73
2023/04/08 00:48:51;;;;;;;33.83;16.33;;;;;;;;;;5011692;28;20030;-74
2023/04/08 00:51:17;;;;;;;26.60;14.43;;;;;;;;;;5011939;28;20433;-73
2023/04/08 00:53:43;;;;;;;31.73;15.30;;;;;;;;;;5011804;28;20026;-74
2023/04/08 00:56:08;;;;;;;27.63;14.03;;;;;;;;;;5009723;28;20109;-73
2023/04/08 00:58:34;;;;;;;23.40;13.20;;;;;;;;;;5011820;28;20033;-75
2023/04/08 01:01:05;;;;;;;25.97;13.53;;;;;;;;;;5010111;28;20518;-72
2023/04/08 01:03:51;;;;;;;31.27;13.48;;;;;;;;;;5012434;28;20030;-74
2023/04/08 01:06:45;;;;;;;24.77;13.67;;;;;;;;;;5012379;28;20555;-74
2023/04/08 01:09:12;;;;;;;22.17;12.37;;;;;;;;;;5011217;28;20433;-73
2023/04/08 01:11:42;;;;;;;24.43;13.23;;;;;;;;;;5011435;28;20030;-73
2023/04/08 01:14:10;;;;;;;24.80;12.73;;;;;;;;;;5011299;28;20112;-72
2023/04/08 01:16:40;;;;;;;25.03;13.80;;;;;;;;;;5011180;28;20021;-72
2023/04/08 01:19:09;;;;;;;24.00;12.30;;;;;;;;;;5011428;28;20533;-73
2023/04/08 01:21:36;;;;;;;22.90;11.77;;;;;;;;;;5009826;28;20112;-72
2023/04/08 01:24:19;;;;;;;22.60;12.80;;;;;;;;;;5009650;28;20505;-73
2023/04/08 01:26:45;;;;;;;20.23;10.80;;;;;;;;;;5010817;28;20110;-73
2023/04/08 01:29:12;;;;;;;26.53;12.60;;;;;;;;;;5009576;28;20052;-74
2023/04/08 01:31:40;;;;;;;21.67;11.50;;;;;;;;;;5011718;28;20065;-73
2023/04/08 01:34:07;;;;;;;23.50;10.80;;;;;;;;;;5010669;28;20112;-73
2023/04/08 01:36:34;;;;;;;20.00;11.23;;;;;;;;;;5010322;28;20033;-73
2023/04/08 01:39:04;;;;;;;19.97;10.13;;;;;;;;;;5011095;28;20096;-73
2023/04/08 01:41:32;;;;;;;16.90;10.67;;;;;;;;;;5031534;28;20021;-73
2023/04/08 01:43:58;;;;;;;18.73;9.80;;;;;;;;;;5030545;28;20053;-73
2023/04/08 01:46:24;;;;;;;19.77;9.63;;;;;;;;;;5031138;28;20125;-73
2023/04/08 01:48:53;;;;;;;16.37;8.83;;;;;;;;;;5030347;28;20049;-73
2023/04/08 01:51:20;;;;;;;18.07;10.10;;;;;;;;;;5030203;28;20036;-74
2023/04/08 01:53:45;;;;;;;18.70;9.67;;;;;;;;;;5030165;28;20493;-74
2023/04/08 01:56:13;;;;;;;14.63;8.57;;;;;;;;;;5029207;28;20041;-73
2023/04/08 01:58:41;;;;;;;16.33;10.30;;;;;;;;;;5030685;28;20033;-72
2023/04/08 02:01:11;;;;;;;18.43;9.37;;;;;;;;;;5030744;28;20036;-72
2023/04/08 02:03:37;;;;;;;20.07;10.43;;;;;;;;;;5031129;28;20241;-73
2023/04/08 02:06:04;;;;;;;19.13;10.93;;;;;;;;;;5030519;28;20025;-73
2023/04/08 02:08:29;;;;;;;18.33;10.97;;;;;;;;;;5029859;28;20389;-73
2023/04/08 02:10:55;;;;;;;24.97;11.33;;;;;;;;;;5029673;28;20030;-73
2023/04/08 02:13:20;;;;;;;20.60;11.33;;;;;;;;;;5030481;28;20473;-73
2023/04/08 02:15:53;;;;;;;22.27;10.43;;;;;;;;;;5029608;28;20033;-73
2023/04/08 02:18:26;;;;;;;24.90;11.87;;;;;;;;;;5030048;28;20493;-74
2023/04/08 02:21:04;;;;;;;19.37;10.43;;;;;;;;;;5030343;28;20098;-73
2023/04/08 02:23:33;;;;;;;19.93;11.63;;;;;;;;;;5028851;28;20033;-73
2023/04/08 02:26:00;;;;;;;22.67;12.17;;;;;;;;;;5028411;28;20060;-72
2023/04/08 02:28:28;;;;;;;22.37;11.47;;;;;;;;;;5028812;28;20649;-73
2023/04/08 02:30:54;;;;;;;20.00;10.53;;;;;;;;;;5030198;28;20112;-72
2023/04/08 02:33:22;;;;;;;23.27;11.37;;;;;;;;;;5030082;28;20030;-73
2023/04/08 02:35:50;;;;;;;19.30;10.57;;;;;;;;;;5028174;28;20025;-74
2023/04/08 02:38:15;;;;;;;25.63;11.10;;;;;;;;;;5028225;28;20087;-73
2023/04/08 02:40:41;;;;;;;21.73;11.30;;;;;;;;;;5024673;28;20195;-73
2023/04/08 02:43:07;;;;;;;21.10;11.40;;;;;;;;;;5009501;28;20037;-74
2023/04/08 02:45:41;;;;;;;19.20;11.10;;;;;;;;;;5008603;28;20052;-73
2023/04/08 02:48:06;;;;;;;25.83;13.43;;;;;;;;;;5009353;28;20034;-74
2023/04/08 02:50:32;;;;;;;19.17;11.33;;;;;;;;;;5009236;28;20037;-73
2023/04/08 02:52:58;;;;;;;18.83;10.77;;;;;;;;;;5008917;28;20133;-74
2023/04/08 02:55:23;;;;;;;22.83;11.03;;;;;;;;;;5011270;28;20095;-74
2023/04/08 02:57:49;;;;;;;19.20;10.20;;;;;;;;;;5009916;28;20049;-73
2023/04/08 03:00:16;;;;;;;23.13;11.03;;;;;;;;;;5009851;28;20056;-74
2023/04/08 03:02:41;;;;;;;17.20;10.23;;;;;;;;;;5010873;28;20099;-73
2023/04/08 03:05:08;;;;;;;17.80;9.80;;;;;;;;;;5010133;28;20030;-74
2023/04/08 03:07:34;;;;;;;17.10;9.77;;;;;;;;;;5028589;28;20105;-74
2023/04/08 03:10:00;;;;;;;20.23;9.93;;;;;;;;;;5012040;28;20411;-74
2023/04/08 03:12:26;;;;;;;17.50;10.20;;;;;;;;;;5029470;28;20060;-74
2023/04/08 03:14:52;;;;;;;13.70;9.10;;;;;;;;;;5012396;28;20038;-74
2023/04/08 03:17:17;;;;;;;15.50;8.07;;;;;;;;;;5028902;28;20113;-73
2023/04/08 03:19:43;;;;;;;17.10;9.17;;;;;;;;;;5013562;28;20080;-73
2023/04/08 03:22:08;;;;;;;15.40;8.17;;;;;;;;;;5028717;28;20060;-73
2023/04/08 03:24:34;;;;;;;17.57;8.77;;;;;;;;;;5013586;28;20038;-73
2023/04/08 03:27:00;;;;;;;16.63;8.83;;;;;;;;;;5013505;28;20428;-74
2023/04/08 03:29:25;;;;;;;13.03;8.27;;;;;;;;;;5011864;28;20029;-73
2023/04/08 03:31:51;;;;;;;16.90;8.90;;;;;;;;;;5014199;28;20042;-74
2023/04/08 03:34:17;;;;;;;15.17;8.67;;;;;;;;;;5012778;28;20045;-73
2023/04/08 03:36:42;;;;;;;12.90;8.03;;;;;;;;;;5028937;28;20030;-74
2023/04/08 03:39:08;;;;;;;13.00;7.63;;;;;;;;;;5012899;28;20030;-73
2023/04/08 03:41:33;;;;;;;14.23;8.00;;;;;;;;;;5011514;28;20061;-73
2023/04/08 03:43:59;;;;;;;17.37;8.03;;;;;;;;;;5012191;28;20063;-73
2023/04/08 03:46:24;;;;;;;15.60;8.43;;;;;;;;;;5013220;28;20048;-72
2023/04/08 03:48:50;;;;;;;17.13;8.83;;;;;;;;;;5011628;28;20037;-73
2023/04/08 03:51:15;;;;;;;13.70;7.60;;;;;;;;;;5012892;28;20675;-74
2023/04/08 03:53:41;;;;;;;16.53;8.13;;;;;;;;;;5013069;28;20040;-74
2023/04/08 03:56:06;;;;;;;18.10;8.70;;;;;;;;;;5012475;28;20061;-73
2023/04/08 03:58:32;;;;;;;13.17;8.20;;;;;;;;;;5012209;28;20502;-73
2023/04/08 04:00:58;;;;;;;15.30;8.00;;;;;;;;;;5012248;28;20093;-73
2023/04/08 04:03:23;;;;;;;15.73;8.60;;;;;;;;;;5013060;28;20108;-73
2023/04/08 04:05:49;;;;;;;16.27;8.87;;;;;;;;;;5013393;28;20025;-73
2023/04/08 04:08:15;;;;;;;15.20;9.53;;;;;;;;;;5012534;28;20030;-73
2023/04/08 04:10:40;;;;;;;19.27;8.83;;;;;;;;;;5013254;28;20037;-73
2023/04/08 04:13:06;;;;;;;12.40;7.63;;;;;;;;;;5013361;28;20551;-73
2023/04/08 04:15:31;;;;;;;15.27;8.17;;;;;;;;;;5013448;28;20065;-73
2023/04/08 04:17:56;;;;;;;15.27;8.53;;;;;;;;;;5011242;28;20033;-72
2023/04/08 04:20:22;;;;;;;16.60;9.20;;;;;;;;;;5010968;28;20037;-73
2023/04/08 04:22:47;;;;;;;15.50;8.20;;;;;;;;;;5013031;28;20041;-73
2023/04/08 04:25:13;;;;;;;14.73;8.03;;;;;;;;;;5012906;28;20033;-73
2023/04/08 04:27:38;;;;;;;16.33;8.03;;;;;;;;;;5011358;28;20049;-72
2023/04/08 04:30:06;;;;;;;16.80;8.43;;;;;;;;;;5026741;28;20397;-74
2023/04/08 04:32:31;;;;;;;12.27;7.97;;;;;;;;;;5031964;28;20036;-74
2023/04/08 04:34:57;;;;;;;12.97;7.40;;;;;;;;;;5030672;28;20037;-74
2023/04/08 04:37:22;;;;;;;14.40;8.47;;;;;;;;;;5031923;28;20103;-73
2023/04/08 04:39:48;;;;;;;13.53;8.50;;;;;;;;;;5025475;28;20084;-74
2023/04/08 04:42:13;;;;;;;15.67;8.13;;;;;;;;;;5012198;28;20025;-73
2023/04/08 04:44:39;;;;;;;16.80;8.07;;;;;;;;;;5023268;28;20045;-74
2023/04/08 04:47:04;;;;;;;11.60;7.57;;;;;;;;;;5030129;28;20069;-74
2023/04/08 04:49:30;;;;;;;15.93;7.67;;;;;;;;;;5031828;28;20031;-74
2023/04/08 04:51:55;;;;;;;11.73;7.37;;;;;;;;;;5031677;28;20505;-75
2023/04/08 04:54:21;;;;;;;9.97;7.10;;;;;;;;;;5031544;28;20539;-74
2023/04/08 04:56:46;;;;;;;13.70;7.40;;;;;;;;;;5030288;28;20398;-74
2023/04/08 04:59:12;;;;;;;12.20;7.13;;;;;;;;;;5031201;28;20033;-74
2023/04/08 05:01:39;;;;;;;15.97;9.50;;;;;;;;;;5031379;28;20060;-73
2023/04/08 05:04:05;;;;;;;10.80;7.30;;;;;;;;;;5031749;28;20457;-73
2023/04/08 05:06:31;;;;;;;13.70;7.37;;;;;;;;;;5031889;28;20060;-74
2023/04/08 05:08:56;;;;;;;12.27;7.13;;;;;;;;;;5031598;28;20493;-74
2023/04/08 05:11:22;;;;;;;14.10;7.33;;;;;;;;;;5031902;28;20083;-73
2023/04/08 05:13:47;;;;;;;14.27;7.63;;;;;;;;;;5031717;28;20083;-73
2023/04/08 05:16:13;;;;;;;11.77;7.10;;;;;;;;;;5031114;28;20038;-74
2023/04/08 05:18:38;;;;;;;10.30;6.70;;;;;;;;;;5029806;28;20164;-74
2023/04/08 05:21:04;;;;;;;14.73;7.43;;;;;;;;;;5029422;28;20087;-74
2023/04/08 05:23:30;;;;;;;16.03;7.77;;;;;;;;;;5029651;28;20103;-74
2023/04/08 05:25:55;;;;;;;12.63;8.10;;;;;;;;;;5031042;28;20039;-73
2023/04/08 05:28:21;;;;;;;16.30;7.03;;;;;;;;;;5029541;28;20080;-74
2023/04/08 05:30:50;;;;;;;12.87;6.90;;;;;;;;;;5030143;28;20385;-74
2023/04/08 05:33:16;;;;;;;10.50;7.17;;;;;;;;;;5031159;28;20501;-74
2023/04/08 05:35:42;;;;;;;13.00;7.27;;;;;;;;;;5029604;28;20033;-73
2023/04/08 05:38:07;;;;;;;11.87;7.60;;;;;;;;;;5029444;28;20029;-73
2023/04/08 05:40:33;;;;;;;9.97;6.30;;;;;;;;;;5017532;28;20034;-73
2023/04/08 05:42:58;;;;;;;12.30;7.53;;;;;;;;;;5011081;28;20104;-74
2023/04/08 05:45:24;;;;;;;9.70;6.57;;;;;;;;;;5009588;28;20083;-74
2023/04/08 05:47:49;;;;;;;11.73;7.10;;;;;;;;;;5011262;28;20026;-75
2023/04/08 05:50:15;;;;;;;11.03;6.97;;;;;;;;;;5011138;28;20041;-74
2023/04/08 05:52:44;;;;;;;10.37;6.80;;;;;;;;;;5011156;28;20072;-74
2023/04/08 05:55:10;;;;;;;10.90;6.37;;;;;;;;;;5010577;28;20030;-74
2023/04/08 05:57:36;;;;;;;12.67;6.93;;;;;;;;;;5011116;28;20053;-73
2023/04/08 06:00:07;;;;;;;10.67;6.43;;;;;;;;;;5009656;28;20084;-74
2023/04/08 06:02:33;;;;;;;10.07;6.13;;;;;;;;;;5010515;28;20057;-73
2023/04/08 06:04:59;;;;;;;10.73;6.20;;;;;;;;;;5009096;28;20038;-73
2023/04/08 06:07:24;;;;;;;9.10;5.80;;;;;;;;;;5009388;28;20041;-73
2023/04/08 06:09:50;;;;;;;10.27;7.10;;;;;;;;;;5009248;28;20037;-73
2023/04/08 06:12:15;;;;;;;11.33;6.17;;;;;;;;;;5010137;28;20079;-73
2023/04/08 06:14:41;;;;;;;13.47;8.80;;;;;;;;;;5010494;28;20442;-74
2023/04/08 06:17:06;;;;;;;16.10;7.77;;;;;;;;;;5008640;28;20046;-75
2023/04/08 06:19:32;;;;;;;13.47;7.60;;;;;;;;;;5008743;28;20025;-74
2023/04/08 06:21:58;;;;;;;11.43;6.73;;;;;;;;;;5008381;28;20474;-74
2023/04/08 06:24:28;;;;;;;12.57;7.57;;;;;;;;;;5010104;28;20036;-74
2023/04/08 06:26:54;;;;;;;12.10;6.37;;;;;;;;;;5008796;28;20029;-74
2023/04/08 06:29:22;;;;;;;11.33;6.93;;;;;;;;;;5010156;28;20132;-74
2023/04/08 06:31:49;;;;;;;10.37;7.50;;;;;;;;;;5010265;28;20097;-75
2023/04/08 06:34:14;;;;;;;12.10;7.07;;;;;;;;;;5009846;28;20471;-74
2023/04/08 06:36:40;;;;;;;10.40;7.13;;;;;;;;;;5010307;28;20057;-73
2023/04/08 06:39:06;;;;;;;10.90;6.57;;;;;;;;;;5010108;28;20025;-75
2023/04/08 06:41:31;;;;;;;9.17;6.33;;;;;;;;;;5010492;28;20514;-75
2023/04/08 06:43:57;;;;;;;12.50;6.73;;;;;;;;;;5010169;28;20502;-74
2023/04/08 06:46:22;;;;;;;10.47;6.83;;;;;;;;;;5009764;28;20033;-73
2023/04/08 06:48:47;;;;;;;11.90;7.27;;;;;;;;;;5009411;28;20030;-74
2023/04/08 06:51:13;;;;;;;10.87;7.00;;;;;;;;;;5008662;28;20030;-74
2023/04/08 06:53:38;;;;;;;12.33;7.43;;;;;;;;;;5010846;28;20037;-74
2023/04/08 06:56:04;;;;;;;14.07;7.20;;;;;;;;;;5010358;28;20036;-74
2023/04/08 06:58:30;;;;;;;11.37;6.00;;;;;;;;;;5009722;28;20330;-75
2023/04/08 07:00:55;;;;;;;10.90;6.63;;;;;;;;;;5009201;28;20112;-74
2023/04/08 07:03:21;;;;;;;11.90;6.23;;;;;;;;;;5008093;28;20073;-75
2023/04/08 07:05:47;;;;;;;10.10;6.10;;;;;;;;;;5009498;28;20060;-74
2023/04/08 07:08:12;;;;;;;13.97;6.47;;;;;;;;;;5008669;28;20027;-73
2023/04/08 07:10:38;;;;;;;9.77;6.30;;;;;;;;;;5008920;28;20026;-73
2023/04/08 07:13:03;;;;;;;9.20;6.30;;;;;;;;;;5010200;28;20025;-72
2023/04/08 07:15:29;;;;;;;8.50;6.40;;;;;;;;;;5009980;28;20029;-75
2023/04/08 07:17:58;;;;;;;9.60;6.90;;;;;;;;;;5010923;28;20026;-73
2023/04/08 07:20:24;;;;;;;9.10;5.90;;;;;;;;;;5008030;28;20030;-73
2023/04/08 07:22:50;;;;;;;8.33;5.83;;;;;;;;;;5009307;28;20493;-73
2023/04/08 07:25:16;;;;;;;8.60;5.80;;;;;;;;;;5008080;28;20097;-75
2023/04/08 07:27:42;;;;;;;8.53;6.00;;;;;;;;;;5008041;28;20033;-74
2023/04/08 07:30:08;;;;;;;9.53;6.23;;;;;;;;;;5009738;28;20042;-73
2023/04/08 07:32:33;;;;;;;8.57;5.73;;;;;;;;;;5009514;28;20109;-74
2023/04/08 07:35:02;;;;;;;11.60;6.53;;;;;;;;;;5009939;28;20026;-74
2023/04/08 07:37:27;;;;;;;7.13;5.60;;;;;;;;;;5008252;28;20397;-74
2023/04/08 07:39:53;;;;;;;7.00;4.90;;;;;;;;;;5015696;28;20062;-74
2023/04/08 07:42:19;;;;;;;6.10;4.90;;;;;;;;;;5027985;28;20057;-74
2023/04/08 07:44:45;;;;;;;7.30;5.10;;;;;;;;;;5029391;28;20076;-73
2023/04/08 07:47:11;;;;;;;8.07;4.80;;;;;;;;;;5027236;28;20387;-73
2023/04/08 07:49:37;;;;;;;8.73;4.73;;;;;;;;;;5027466;28;20026;-74
2023/04/08 07:52:04;;;;;;;7.73;4.47;;;;;;;;;;5027696;28;20152;-74
2023/04/08 07:54:35;;;;;;;9.40;4.90;;;;;;;;;;5030639;28;20412;-74
2023/04/08 07:57:01;;;;;;;6.75;5.00;;;;;;;;;;5031477;28;20446;-74
2023/04/08 07:59:27;;;;;;;7.90;5.50;;;;;;;;;;5031315;28;20025;-74
2023/04/08 08:01:53;;;;;;;7.37;5.73;;;;;;;;;;5032653;28;20091;-73
2023/04/08 08:04:19;;;;;;;7.07;5.20;;;;;;;;;;5033123;28;20037;-74
2023/04/08 08:06:46;;;;;;;7.63;5.80;;;;;;;;;;5033331;28;20065;-74
2023/04/08 08:09:13;;;;;;;7.03;5.40;;;;;;;;;;5033240;28;20080;-73
2023/04/08 08:11:39;;;;;;;11.43;5.90;;;;;;;;;;5032899;28;20029;-74
2023/04/08 08:14:05;;;;;;;9.73;5.93;;;;;;;;;;5033119;28;20027;-74
2023/04/08 08:16:32;;;;;;;9.23;6.47;;;;;;;;;;5032966;28;20290;-73
2023/04/08 08:18:58;;;;;;;10.13;5.80;;;;;;;;;;5031453;28;20025;-74
2023/04/08 08:21:25;;;;;;;9.33;6.47;;;;;;;;;;5031536;28;20026;-74
2023/04/08 08:23:54;;;;;;;8.57;5.77;;;;;;;;;;5030941;28;20032;-75
2023/04/08 08:26:20;;;;;;;10.27;6.40;;;;;;;;;;5032278;28;20355;-73
2023/04/08 08:28:45;;;;;;;11.20;6.27;;;;;;;;;;5031116;28;20334;-75
2023/04/08 08:31:11;;;;;;;10.23;7.13;;;;;;;;;;5031876;28;20391;-74
2023/04/08 08:33:36;;;;;;;13.23;7.07;;;;;;;;;;5030725;28;20029;-73
2023/04/08 08:36:04;;;;;;;10.80;7.70;;;;;;;;;;5030995;28;20402;-75
2023/04/08 08:38:30;;;;;;;12.20;8.63;;;;;;;;;;5030878;28;20507;-74
2023/04/08 08:40:59;;;;;;;12.23;7.93;;;;;;;;;;5031344;28;20025;-72
2023/04/08 08:43:26;;;;;;;15.43;8.37;;;;;;;;;;5032061;28;20045;-72
2023/04/08 08:45:52;;;;;;;15.13;9.23;;;;;;;;;;5030913;28;20465;-74
2023/04/08 08:48:18;;;;;;;17.30;9.33;;;;;;;;;;5030844;28;20358;-74
2023/04/08 08:50:44;;;;;;;15.20;9.40;;;;;;;;;;5031222;28;20029;-74
2023/04/08 08:53:10;;;;;;;15.80;9.17;;;;;;;;;;5030973;28;20037;-75
2023/04/08 08:55:37;;;;;;;15.67;9.40;;;;;;;;;;5032154;28;20564;-74
2023/04/08 08:58:03;;;;;;;18.27;9.80;;;;;;;;;;5032084;28;20049;-74
2023/04/08 09:00:32;;;;;;;18.57;9.83;;;;;;;;;;5032002;28;20024;-74
2023/04/08 09:03:16;;;;;;;18.07;10.50;;;;;;;;;;5031078;28;20363;-73
2023/04/08 09:05:53;;;;;;;19.13;10.00;;;;;;;;;;5031080;28;20513;-74
2023/04/08 09:08:35;;;;;;;22.47;10.67;;;;;;;;;;5032371;28;20378;-75
2023/04/08 09:11:13;;;;;;;21.40;10.17;;;;;;;;;;5032327;28;20478;-75
2023/04/08 09:13:39;;;;;;;22.40;10.33;;;;;;;;;;5032343;28;20044;-74
2023/04/08 09:16:08;;;;;;;18.80;10.43;;;;;;;;;;5030532;28;20661;-74
2023/04/08 09:18:34;;;;;;;18.73;9.40;;;;;;;;;;5031228;28;20353;-74
2023/04/08 09:21:01;;;;;;;18.20;9.53;;;;;;;;;;5032310;28;20079;-74
2023/04/08 09:23:41;;;;;;;19.47;10.10;;;;;;;;;;5031446;28;20029;-74
2023/04/08 09:26:12;;;;;;;17.03;9.33;;;;;;;;;;5031496;28;20036;-73
2023/04/08 09:28:39;;;;;;;17.97;11.03;;;;;;;;;;5031693;28;20061;-74
2023/04/08 09:31:17;;;;;;;17.07;10.17;;;;;;;;;;5032036;28;20152;-74
2023/04/08 09:33:42;;;;;;;19.43;10.23;;;;;;;;;;5030447;28;20036;-74
2023/04/08 09:36:08;;;;;;;16.93;9.70;;;;;;;;;;5031401;28;20440;-74
2023/04/08 09:38:33;;;;;;;17.98;9.70;;;;;;;;;;5031013;28;20100;-74
2023/04/08 09:41:04;;;;;;;14.77;8.38;;;;;;;;;;5028837;28;20033;-73
2023/04/08 09:43:31;;;;;;;16.38;9.32;;;;;;;;;;5029467;28;20585;-73
2023/04/08 09:46:01;;;;;;;15.70;8.73;;;;;;;;;;5031351;28;20052;-74
2023/04/08 09:48:38;;;;;;;18.92;10.30;;;;;;;;;;5029947;28;20042;-74
2023/04/08 09:51:05;;;;;;;16.42;9.90;;;;;;;;;;5030518;28;20040;-73
2023/04/08 09:53:37;;;;;;;16.58;10.07;;;;;;;;;;5030521;28;20031;-74
2023/04/08 09:56:07;;;;;;;15.93;8.77;;;;;;;;;;5029451;28;20036;-74
2023/04/08 09:58:45;;;;;;;14.75;8.63;;;;;;;;;;5029273;28;20025;-73
2023/04/08 10:01:14;;;;;;;13.95;8.23;;;;;;;;;;5030587;28;20060;-75
2023/04/08 10:03:48;;;;;;;13.43;8.95;;;;;;;;;;5030284;28;20390;-75
2023/04/08 10:06:15;;;;;;;14.82;9.07;;;;;;;;;;5013367;28;20461;-73
2023/04/08 10:08:41;;;;;;;13.85;8.77;;;;;;;;;;5029281;28;20477;-75
2023/04/08 10:11:07;;;;;;;15.55;9.02;;;;;;;;;;5012576;28;20040;-73
2023/04/08 10:13:33;;;;;;;13.57;8.30;;;;;;;;;;5030046;28;20021;-75
2023/04/08 10:16:31;;;;;;;13.23;8.88;;;;;;;;;;5030224;28;20033;-74
2023/04/08 10:18:56;;;;;;;12.73;8.40;;;;;;;;;;4975705;28;20519;-75
2023/04/08 10:21:36;;;;;;;14.68;8.27;;;;;;;;;;5031005;28;20113;-74
2023/04/08 10:24:06;;;;;;;12.82;8.38;;;;;;;;;;5028992;28;20041;-73
2023/04/08 10:26:36;;;;;;;16.13;9.48;;;;;;;;;;5030902;28;20351;-75
2023/04/08 10:29:27;;;;;;;13.35;8.48;;;;;;;;;;5030346;28;20138;-74
2023/04/08 10:31:53;;;;;;;12.90;8.73;;;;;;;;;;5019164;28;20143;-75
2023/04/08 10:34:28;;;;;;;14.73;8.55;;;;;;;;;;5030487;28;20747;-74
2023/04/08 10:36:55;;;;;;;15.52;9.05;;;;;;;;;;5030285;28;20086;-74
2023/04/08 10:39:21;;;;;;;14.23;9.02;;;;;;;;;;5027684;28;20024;-74
2023/04/08 10:41:49;;;;;;;13.27;9.10;;;;;;;;;;5008521;28;20025;-73
2023/04/08 10:44:18;;;;;;;20.58;9.50;;;;;;;;;;5010734;28;20045;-74
2023/04/08 10:46:48;;;;;;;17.75;10.60;;;;;;;;;;5010285;28;20032;-73
2023/04/08 10:49:14;;;;;;;15.40;9.25;;;;;;;;;;5010131;28;20117;-74
2023/04/08 10:51:41;;;;;;;14.20;8.82;;;;;;;;;;5008603;28;20018;-74
2023/04/08 10:54:08;;;;;;;15.13;9.65;;;;;;;;;;5008636;28;20034;-74
2023/04/08 10:56:35;;;;;;;14.73;8.20;;;;;;;;;;5008337;28;20176;-75
2023/04/08 10:59:01;;;;;;;14.82;10.48;;;;;;;;;;5012075;28;20018;-74
2023/04/08 11:01:27;;;;;;;12.90;8.73;;;;;;;;;;5010138;28;20030;-74
2023/04/08 11:03:52;;;;;;;21.27;10.90;;;;;;;;;;5012129;28;20033;-74
2023/04/08 11:06:18;;;;;;;12.85;8.68;;;;;;;;;;5007889;28;20129;-73
2023/04/08 11:08:44;;;;;;;13.75;8.85;;;;;;;;;;5009200;28;20037;-72
2023/04/08 11:11:10;;;;;;;13.38;8.60;;;;;;;;;;5008697;28;20017;-75
2023/04/08 11:13:39;;;;;;;17.33;9.48;;;;;;;;;;5009790;28;20026;-74
2023/04/08 11:16:10;;;;;;;13.02;8.90;;;;;;;;;;5010172;28;20033;-74
2023/04/08 11:18:40;;;;;;;17.15;9.80;;;;;;;;;;5009081;28;20088;-74
2023/04/08 11:21:11;;;;;;;18.15;9.50;;;;;;;;;;5008030;28;20494;-75
2023/04/08 11:23:37;;;;;;;14.07;9.05;;;;;;;;;;5007920;28;20034;-75
2023/04/08 11:26:03;;;;;;;12.50;7.78;;;;;;;;;;5007448;28;20030;-73
2023/04/08 11:28:29;;;;;;;10.45;7.40;;;;;;;;;;5010828;28;20086;-74
2023/04/08 11:30:56;;;;;;;26.27;13.60;;;;;;;;;;5013648;28;20064;-74
2023/04/08 11:33:25;;;;;;;14.65;7.97;;;;;;;;;;5012565;28;20112;-75
2023/04/08 11:35:51;;;;;;;14.88;6.95;;;;;;;;;;5013933;28;20053;-74
2023/04/08 11:38:21;;;;;;;11.20;6.97;;;;;;;;;;5012314;28;20069;-74
2023/04/08 11:40:59;;;;;;;10.25;7.22;;;;;;;;;;5027713;28;20044;-74
2023/04/08 11:43:25;;;;;;;10.55;6.80;;;;;;;;;;5033478;28;20377;-73
2023/04/08 11:45:51;;;;;;;13.13;6.70;;;;;;;;;;5032977;28;20037;-74
2023/04/08 11:48:17;;;;;;;9.40;7.20;;;;;;;;;;5015267;28;20067;-73
2023/04/08 11:50:43;;;;;;;16.13;7.30;;;;;;;;;;5031306;28;20029;-74
2023/04/08 11:53:19;;;;;;;11.65;7.13;;;;;;;;;;5033455;28;20036;-74
2023/04/08 11:55:45;;;;;;;9.30;5.60;;;;;;;;;;5031643;28;20025;-74
2023/04/08 11:58:11;;;;;;;9.30;4.72;;;;;;;;;;5031977;28;20021;-74
2023/04/08 12:00:37;;;;;;;8.45;5.72;;;;;;;;;;5031044;28;20396;-75
2023/04/08 12:03:03;;;;;;;8.57;5.65;;;;;;;;;;5031770;28;20029;-74
2023/04/08 12:05:28;;;;;;;8.43;6.18;;;;;;;;;;5031343;28;20466;-75
2023/04/08 12:07:54;;;;;;;11.38;6.10;;;;;;;;;;5032493;28;20037;-73
2023/04/08 12:10:19;;;;;;;13.52;6.10;;;;;;;;;;5031426;28;20026;-75
2023/04/08 12:12:45;;;;;;;10.93;6.22;;;;;;;;;;5032666;28;20104;-75
2023/04/08 12:15:12;;;;;;;10.77;6.70;;;;;;;;;;5032673;28;20056;-74
2023/04/08 12:17:38;;;;;;;8.63;5.65;;;;;;;;;;5030738;28;20029;-74
2023/04/08 12:20:05;;;;;;;12.32;6.95;;;;;;;;;;5032459;28;20545;-74
2023/04/08 12:22:30;;;;;;;10.52;6.38;;;;;;;;;;5032401;28;20501;-75
2023/04/08 12:24:56;;;;;;;13.00;7.05;;;;;;;;;;5032680;28;20037;-73
2023/04/08 12:27:21;;;;;;;13.05;7.43;;;;;;;;;;5032000;28;20100;-75
2023/04/08 12:29:48;;;;;;;12.55;6.70;;;;;;;;;;5030402;28;20022;-74
2023/04/08 12:32:14;;;;;;;8.40;5.88;;;;;;;;;;5032176;28;20085;-74
2023/04/08 12:34:40;;;;;;;8.52;5.88;;;;;;;;;;5030533;28;20533;-74
2023/04/08 12:37:05;;;;;;;17.35;10.50;;;;;;;;;;5030531;28;20481;-74
2023/04/08 12:39:31;;;;;;;8.63;6.32;;;;;;;;;;5025711;28;20024;-74
2023/04/08 12:41:56;;;;;;;10.35;7.00;;;;;;;;;;5010022;28;20451;-74
2023/04/08 12:44:21;;;;;;;13.00;6.55;;;;;;;;;;5012390;28;20065;-74
2023/04/08 12:46:48;;;;;;;8.20;5.72;;;;;;;;;;5011287;28;20029;-75
2023/04/08 12:49:13;;;;;;;10.73;6.32;;;;;;;;;;5010097;28;20037;-75
2023/04/08 12:51:39;;;;;;;14.25;7.20;;;;;;;;;;5009658;28;20346;-73
2023/04/08 12:54:05;;;;;;;12.80;6.77;;;;;;;;;;5010634;28;20248;-74
2023/04/08 12:56:31;;;;;;;9.85;6.30;;;;;;;;;;5011653;28;20033;-74
2023/04/08 12:58:57;;;;;;;12.77;6.05;;;;;;;;;;5012164;28;20168;-74
2023/04/08 13:01:23;;;;;;;10.10;5.40;;;;;;;;;;5011822;28;20044;-74
2023/04/08 13:03:49;;;;;;;13.35;7.10;;;;;;;;;;5010585;28;20034;-74
2023/04/08 13:06:15;;;;;;;11.00;6.40;;;;;;;;;;5010506;28;20026;-73
2023/04/08 13:08:41;;;;;;;14.35;7.30;;;;;;;;;;5011600;28;20065;-74
2023/04/08 13:11:08;;;;;;;10.00;6.90;;;;;;;;;;5012213;28;20022;-74
2023/04/08 13:13:34;;;;;;;12.88;7.50;;;;;;;;;;5010771;28;20121;-74
2023/04/08 13:15:59;;;;;;;14.95;7.50;;;;;;;;;;5011822;28;20093;-73
2023/04/08 13:18:25;;;;;;;13.23;8.20;;;;;;;;;;5010213;28;20433;-74
2023/04/08 13:20:52;;;;;;;18.20;10.25;;;;;;;;;;5011821;28;20030;-74
2023/04/08 13:23:18;;;;;;;19.20;10.18;;;;;;;;;;5010483;28;20102;-74
2023/04/08 13:25:47;;;;;;;17.77;10.63;;;;;;;;;;5009853;28;20057;-74
2023/04/08 13:28:12;;;;;;;20.90;10.18;;;;;;;;;;5009836;28;20030;-75
2023/04/08 13:30:38;;;;;;;16.95;9.90;;;;;;;;;;5011157;28;20107;-74
2023/04/08 13:33:03;;;;;;;19.30;10.82;;;;;;;;;;5009646;28;20026;-75
2023/04/08 13:35:29;;;;;;;17.23;10.13;;;;;;;;;;5011037;28;20061;-74
2023/04/08 13:37:54;;;;;;;17.35;9.27;;;;;;;;;;5009717;28;20068;-74
2023/04/08 13:40:20;;;;;;;17.08;10.65;;;;;;;;;;5020893;28;20121;-74
2023/04/08 13:42:46;;;;;;;17.73;9.38;;;;;;;;;;5030133;28;20036;-74
2023/04/08 13:45:12;;;;;;;14.15;9.43;;;;;;;;;;5029778;28;20339;-74
2023/04/08 13:47:38;;;;;;;17.67;10.23;;;;;;;;;;5029179;28;20112;-73
2023/04/08 13:50:05;;;;;;;16.73;9.25;;;;;;;;;;5028983;28;20306;-73
2023/04/08 13:52:30;;;;;;;19.85;9.70;;;;;;;;;;5030141;28;20104;-75
2023/04/08 13:54:56;;;;;;;16.83;8.88;;;;;;;;;;5030032;28;20208;-75
2023/04/08 13:57:21;;;;;;;18.85;10.18;;;;;;;;;;5030332;28;20486;-75
2023/04/08 13:59:46;;;;;;;19.00;9.20;;;;;;;;;;5030693;28;20020;-74
2023/04/08 14:02:12;;;;;;;14.25;8.38;;;;;;;;;;5030156;28;20367;-73
2023/04/08 14:04:38;;;;;;;14.95;8.60;;;;;;;;;;5028496;28;20029;-74
2023/04/08 14:07:04;;;;;;;14.55;8.50;;;;;;;;;;5028471;28;20040;-74
2023/04/08 14:09:29;;;;;;;15.15;8.90;;;;;;;;;;5028629;28;20022;-74
2023/04/08 14:11:55;;;;;;;12.88;8.68;;;;;;;;;;5030021;28;20324;-74
2023/04/08 14:14:21;;;;;;;12.45;8.35;;;;;;;;;;5028935;28;20029;-74
2023/04/08 14:16:47;;;;;;;12.00;8.27;;;;;;;;;;5028513;28;20025;-74
2023/04/08 14:19:13;;;;;;;15.63;8.93;;;;;;;;;;5031005;28;20481;-75
2023/04/08 14:21:38;;;;;;;14.63;9.10;;;;;;;;;;5028674;28;20032;-75
2023/04/08 14:24:05;;;;;;;15.20;8.98;;;;;;;;;;5028997;28;20029;-73
2023/04/08 14:26:34;;;;;;;14.15;8.63;;;;;;;;;;5030137;28;20450;-74